Monday, January 22, 2018, 9:04 AM EST
Back to Local

KFIT, Fitchburg, Fitchburg Municipal Airport

Location: Leominster, MA, United States Lat: 42.552
Local Time: 9:04 AM EST (14:04 GMT) Lon: -71.756
Time Zone: US/Eastern Elev: 347 ft

Show me the last for .
Show Decoded

2018-01-22 08:52 METAR KFIT 221352Z AUTO 00000KT 1 1/2SM -RA BR OVC011 02/02 A3026 RMK AO2 SLP252
                 P0002 T00220017 =
2018-01-22 08:37 METAR KFIT 221337Z AUTO 00000KT 1 3/4SM -RA BR OVC012 02/01 A3025 RMK AO2 P0001
                 T00220011 =
2018-01-22 08:17 METAR KFIT 221317Z AUTO 00000KT 2SM -RA BR OVC012 02/01 A3025 RMK AO2 P0000
                 T00220011 =
2018-01-22 08:01 METAR KFIT 221301Z AUTO 00000KT 3SM -RA BR BKN014 OVC020 02/01 A3025 RMK AO2
                 P0000 T00220011 =
2018-01-22 07:52 METAR KFIT 221252Z AUTO 00000KT 3SM -RA BR OVC018 02/01 A3024 RMK AO2 SLP245
                 P0001 T00220011 =
2018-01-22 07:47 METAR KFIT 221247Z AUTO 00000KT 2 1/2SM -RA BR OVC020 02/01 A3024 RMK AO2 P0001
                 =
2018-01-22 06:52 METAR KFIT 221152Z AUTO 00000KT 3SM -RA BR OVC018 02/01 A3021 RMK AO2 RAB33
                 SLP234 P0000 60000 T00170011 10017 20006 53006 =
2018-01-22 05:52 METAR KFIT 221052Z AUTO 00000KT 5SM BR OVC022 02/01 A3019 RMK AO2 SLP227
                 T00170011 =
2018-01-22 04:52 METAR KFIT 220952Z AUTO 00000KT 5SM BR OVC026 02/01 A3018 RMK AO2 RAE05 SLP225
                 P0000 T00170006 =
2018-01-22 04:05 METAR KFIT 220905Z AUTO 00000KT 6SM BR BKN028 OVC040 02/01 A3019 RMK AO2 RAE05
                 P0000 T00170006 =
2018-01-22 03:52 METAR KFIT 220852Z AUTO 00000KT 7SM -RA OVC030 02/01 A3019 RMK AO2 RAB0753
                 SLP227 P0000 60000 T00170006 53006 =
2018-01-22 02:52 METAR KFIT 220752Z AUTO 00000KT 8SM BKN039 OVC050 02/00 A3018 RMK AO2 SLP222
                 T00170000 =
2018-01-22 01:52 METAR KFIT 220652Z AUTO 00000KT 8SM BKN042 OVC055 01/00 A3017 RMK AO2 SLP220
                 T00110000 =
2018-01-22 00:52 METAR KFIT 220552Z AUTO 00000KT 8SM SCT047 OVC065 01/M01 A3017 RMK AO2 SLP220
                 T00061006 10011 21011 58004 =
2018-01-21 23:52 METAR KFIT 220452Z AUTO 00000KT 8SM OVC060 00/M01 A3018 RMK AO2 SLP223 T00001011
                 401061033 =
2018-01-21 22:52 METAR KFIT 220352Z AUTO 00000KT 8SM CLR M01/M02 A3018 RMK AO2 SLP225 T10111022 =
2018-01-21 21:52 METAR KFIT 220252Z AUTO 00000KT 8SM CLR M01/M02 A3018 RMK AO2 SLP225 T10061017
                 51006 =
2018-01-21 20:52 METAR KFIT 220152Z AUTO 00000KT 9SM CLR M01/M03 A3018 RMK AO2 SLP223 T10061028 =
2018-01-21 19:52 METAR KFIT 220052Z AUTO 00000KT 10SM CLR 01/M01 A3017 RMK AO2 SLP223 T00111011 =
2018-01-21 18:52 METAR KFIT 212352Z AUTO 00000KT 10SM CLR 01/M01 A3017 RMK AO2 SLP220 T00111011
                 10106 20011 51017 =
2018-01-21 17:52 METAR KFIT 212252Z AUTO 00000KT 10SM CLR 02/M01 A3016 RMK AO2 SLP215 T00221011 =
2018-01-21 16:52 METAR KFIT 212152Z AUTO 00000KT 10SM CLR 06/M01 A3013 RMK AO2 SLP207 T00611006 =
2018-01-21 15:52 METAR KFIT 212052Z AUTO 30005KT 10SM CLR 09/M01 A3012 RMK AO2 SLP202 T00941006
                 53003 =
2018-01-21 14:52 METAR KFIT 211952Z AUTO 29005KT 10SM CLR 10/M01 A3011 RMK AO2 SLP199 T01001006 =
2018-01-21 13:52 METAR KFIT 211852Z AUTO VRB06KT 10SM CLR 10/00 A3010 RMK AO2 SLP196 T01000000 =
2018-01-21 12:52 METAR KFIT 211752Z AUTO VRB03KT 10SM CLR 09/00 A3011 RMK AO2 SLP199 T00940000
                 10100 21011 58013 =
2018-01-21 11:52 METAR KFIT 211652Z AUTO 29005KT 10SM CLR 09/00 A3012 RMK AO2 SLP204 T00890000 =
2018-01-21 10:52 METAR KFIT 211552Z AUTO 30006KT 10SM CLR 08/00 A3015 RMK AO2 SLP214 T00830000 =
2018-01-21 09:52 METAR KFIT 211452Z AUTO 30007KT 10SM CLR 07/00 A3015 RMK AO2 SLP212 T00720000
                 53021 =

Support USWX by starting your Amazon purchase here.